Terminal Aerodrome Forecast
Issued by NWS

Home | Current Version | Previous Version | Graphics & Text | Print | Product List | Glossary On
Versions: 1 2 3 4 5 6 7 8 9 10 11 12 13 14 15 16 17 18 19 20
919
FTUS43 KABR 151016 AAB
TAFATY
TAF AMD
KATY 151016Z 1510/1606 34019G28KT P6SM SCT010
      TEMPO 1511/1515 5SM BLSN BKN010
     FM151500 33018G25KT P6SM BKN015
     FM151700 34019G27KT P6SM BKN008
     FM152300 34019G27KT P6SM BKN020
     FM160400 34013G20KT P6SM BKN035
     FM160500 34012G19KT P6SM SCT045=

USA.gov is the U.S. government's official web portal to all federal, state and local government web resources and services.